Terminal Aerodrome Forecast
Issued by NWS

Home | Current Version | Previous Version | Text Only | Print | Product List | Glossary On
Versions: 1 2 3 4 5 6 7 8 9 10 11 12 13 14 15 16 17 18 19 20 21 22 23 24 25
000
FTUS43 KICT 152145 AAA
TAFSLN
TAF AMD
KSLN 152145Z 1522/1618 32022G30KT P6SM OVC025
      TEMPO 1522/1524 5SM -SN OVC018
     FM160000 33017G24KT 6SM -SN OVC025
     FM160400 34015G20KT P6SM BKN025
     FM161400 35012KT P6SM SCT020 BKN035=

USA.gov is the U.S. government's official web portal to all federal, state and local government web resources and services.